createdAt,value
2019-02-08T00:00:40.479Z,7.67
2019-02-08T00:03:12.284Z,8.00
2019-02-08T00:05:43.804Z,8.20
2019-02-08T00:08:17.034Z,9.50
2019-02-08T00:10:48.481Z,8.93
2019-02-08T00:13:20.338Z,9.97
2019-02-08T00:15:51.793Z,11.20
2019-02-08T00:18:23.176Z,13.70
2019-02-08T00:20:54.652Z,16.67
2019-02-08T00:23:27.556Z,12.60
2019-02-08T00:25:59.068Z,14.97
2019-02-08T00:28:30.508Z,14.93
2019-02-08T00:31:02.975Z,16.20
2019-02-08T00:33:34.404Z,17.03
2019-02-08T00:36:06.592Z,17.17
2019-02-08T00:38:38.104Z,12.90
2019-02-08T00:41:09.586Z,14.97
2019-02-08T00:43:41.010Z,14.50
2019-02-08T00:46:13.559Z,18.63
2019-02-08T00:48:45.377Z,15.23
2019-02-08T00:51:16.859Z,16.60
2019-02-08T00:53:48.297Z,18.43
2019-02-08T00:56:19.784Z,14.03
2019-02-08T00:58:51.218Z,16.90
2019-02-08T01:01:25.805Z,18.57
2019-02-08T01:03:57.580Z,14.00
2019-02-08T01:06:29.064Z,12.10
2019-02-08T01:09:00.508Z,14.20
2019-02-08T01:11:33.593Z,12.43
2019-02-08T01:14:06.444Z,10.97
2019-02-08T01:16:37.906Z,8.93
2019-02-08T01:19:09.519Z,8.90
2019-02-08T01:21:40.986Z,10.57
2019-02-08T01:24:12.436Z,16.30
2019-02-08T01:26:44.444Z,13.03
2019-02-08T01:29:15.899Z,11.37
2019-02-08T01:31:47.364Z,9.50
2019-02-08T01:34:21.612Z,11.23
2019-02-08T01:36:55.514Z,9.00
2019-02-08T01:39:26.968Z,11.87
2019-02-08T01:41:58.596Z,12.70
2019-02-08T01:44:30.139Z,9.93
2019-02-08T01:47:01.688Z,8.33
2019-02-08T01:49:33.126Z,7.07
2019-02-08T01:52:04.636Z,15.20
2019-02-08T01:54:38.410Z,8.50
2019-02-08T01:57:09.914Z,8.83
2019-02-08T01:59:41.356Z,13.77
2019-02-08T02:02:12.768Z,7.57
2019-02-08T02:04:44.204Z,8.20
2019-02-08T02:07:15.657Z,8.60
2019-02-08T02:09:47.344Z,10.40
2019-02-08T02:12:18.872Z,10.63
2019-02-08T02:14:51.943Z,9.33
2019-02-08T02:17:23.500Z,10.63
2019-02-08T02:19:54.916Z,9.90
2019-02-08T02:22:26.384Z,7.80
2019-02-08T02:24:57.804Z,6.53
2019-02-08T02:27:29.274Z,9.30
2019-02-08T02:30:00.708Z,9.60
2019-02-08T02:32:34.289Z,7.37
2019-02-08T02:35:07.173Z,10.03
2019-02-08T02:37:40.723Z,8.23
2019-02-08T02:40:13.824Z,15.43
2019-02-08T02:42:45.276Z,8.67
2019-02-08T02:45:37.384Z,7.40
2019-02-08T02:48:12.155Z,6.97
2019-02-08T02:50:43.614Z,5.00
2019-02-08T02:53:15.066Z,4.67
2019-02-08T02:55:46.515Z,5.57
2019-02-08T02:58:18.967Z,5.03
2019-02-08T03:00:51.536Z,8.47
2019-02-08T03:03:22.984Z,6.33
2019-02-08T03:05:54.432Z,6.30
2019-02-08T03:08:25.893Z,5.63
2019-02-08T03:10:57.357Z,10.43
2019-02-08T03:13:28.824Z,8.70
2019-02-08T03:16:00.261Z,8.83
2019-02-08T03:18:31.694Z,8.30
2019-02-08T03:21:03.130Z,9.03
2019-02-08T03:23:34.596Z,6.90
2019-02-08T03:26:06.236Z,4.27
2019-02-08T03:28:38.997Z,5.70
2019-02-08T03:31:12.132Z,6.30
2019-02-08T03:33:43.590Z,8.53
2019-02-08T03:36:15.028Z,4.97
2019-02-08T03:38:47.026Z,4.43
2019-02-08T03:41:18.636Z,6.33
2019-02-08T03:43:50.464Z,4.73
2019-02-08T03:46:21.914Z,6.90
2019-02-08T03:48:53.374Z,5.53
2019-02-08T03:51:24.825Z,3.97
2019-02-08T03:53:56.278Z,6.47
2019-02-08T03:56:27.759Z,4.50
2019-02-08T03:58:59.139Z,3.33
2019-02-08T04:01:30.586Z,8.33
2019-02-08T04:04:16.531Z,3.67
2019-02-08T04:06:47.966Z,7.80
2019-02-08T04:09:19.393Z,2.80
2019-02-08T04:11:50.847Z,3.53
2019-02-08T04:14:22.317Z,5.30
2019-02-08T04:16:53.754Z,6.63
2019-02-08T04:19:25.247Z,5.70
2019-02-08T04:21:58.837Z,5.63
2019-02-08T04:24:32.311Z,4.63
2019-02-08T04:27:03.431Z,5.13
2019-02-08T04:29:34.892Z,5.40
2019-02-08T04:32:06.532Z,3.50
2019-02-08T04:34:37.972Z,6.23
2019-02-08T04:37:09.423Z,3.87
2019-02-08T04:39:40.898Z,7.17
2019-02-08T04:42:12.334Z,4.33
2019-02-08T04:44:43.801Z,3.33
2019-02-08T04:47:15.232Z,4.93
2019-02-08T04:49:48.526Z,5.90
2019-02-08T04:52:19.912Z,8.50
2019-02-08T04:54:51.355Z,8.10
2019-02-08T04:57:22.797Z,7.77
2019-02-08T04:59:54.254Z,6.40
2019-02-08T05:02:25.747Z,5.37
2019-02-08T05:04:57.209Z,4.23
2019-02-08T05:07:30.434Z,4.97
2019-02-08T05:10:01.925Z,6.77
2019-02-08T05:12:33.433Z,10.30
2019-02-08T05:15:06.205Z,6.10
2019-02-08T05:17:37.656Z,8.77
2019-02-08T05:20:12.769Z,4.87
2019-02-08T05:22:44.465Z,8.47
2019-02-08T05:25:16.517Z,8.83
2019-02-08T05:27:48.553Z,9.37
2019-02-08T05:30:32.410Z,9.13
2019-02-08T05:33:04.284Z,5.23
2019-02-08T05:35:36.409Z,4.43
2019-02-08T05:38:08.091Z,5.37
2019-02-08T05:40:39.628Z,5.50
2019-02-08T05:43:11.089Z,7.43
2019-02-08T05:45:42.574Z,8.13
2019-02-08T05:48:14.053Z,5.90
2019-02-08T05:50:45.417Z,8.97
2019-02-08T05:53:19.901Z,7.30
2019-02-08T05:55:51.457Z,11.30
2019-02-08T05:58:22.929Z,12.00
2019-02-08T06:00:58.675Z,2.70
2019-02-08T06:03:31.754Z,3.13
2019-02-08T06:06:03.265Z,6.30
2019-02-08T06:08:34.682Z,9.23
2019-02-08T06:11:06.258Z,4.60
2019-02-08T06:13:37.681Z,12.87
2019-02-08T06:16:10.361Z,3.10
2019-02-08T06:18:41.830Z,10.33
2019-02-08T06:21:13.343Z,5.73
2019-02-08T06:23:45.120Z,8.87
2019-02-08T06:26:18.320Z,5.27
2019-02-08T06:28:49.766Z,8.60
2019-02-08T06:31:21.211Z,7.33
2019-02-08T06:33:52.658Z,5.83
2019-02-08T06:36:24.732Z,4.00
2019-02-08T06:38:56.153Z,3.60
2019-02-08T06:41:27.635Z,8.87
2019-02-08T06:43:59.177Z,5.50
2019-02-08T06:46:31.338Z,7.00
2019-02-08T06:49:02.777Z,5.23
2019-02-08T06:51:34.311Z,6.70
2019-02-08T06:54:07.973Z,8.10
2019-02-08T06:56:59.276Z,6.40
2019-02-08T06:59:38.035Z,7.57
2019-02-08T07:02:27.435Z,6.50
2019-02-08T07:05:09.939Z,5.00
2019-02-08T07:08:03.291Z,3.63
2019-02-08T07:10:53.620Z,4.30
2019-02-08T07:13:49.769Z,5.67
2019-02-08T07:16:38.751Z,8.80
2019-02-08T07:19:25.313Z,3.73
2019-02-08T07:22:12.807Z,7.17
2019-02-08T07:24:50.532Z,9.00
2019-02-08T07:27:36.824Z,4.63
2019-02-08T07:30:43.547Z,6.87
2019-02-08T07:33:43.205Z,8.47
2019-02-08T07:36:25.439Z,5.00
2019-02-08T07:39:22.902Z,6.40
2019-02-08T07:42:12.614Z,11.90
2019-02-08T07:45:14.193Z,7.33
2019-02-08T07:48:03.064Z,4.50
2019-02-08T07:50:52.621Z,7.40
2019-02-08T07:53:49.041Z,7.67
2019-02-08T07:56:42.173Z,6.33
2019-02-08T07:59:29.133Z,5.67
2019-02-08T08:02:09.269Z,3.63
2019-02-08T08:04:49.253Z,4.80
2019-02-08T08:07:57.649Z,8.40
2019-02-08T08:10:46.621Z,6.63
2019-02-08T08:13:48.913Z,2.83
2019-02-08T08:16:34.056Z,2.23
2019-02-08T08:19:23.010Z,5.70
2019-02-08T08:22:01.519Z,3.33
2019-02-08T08:24:59.158Z,11.73
2019-02-08T08:27:55.963Z,3.00
2019-02-08T08:30:39.470Z,1.87
2019-02-08T08:33:24.928Z,8.00
2019-02-08T08:36:41.278Z,5.87
2019-02-08T08:40:14.559Z,3.43
2019-02-08T08:43:27.262Z,5.83
2019-02-08T08:47:05.357Z,2.23
2019-02-08T08:50:22.550Z,1.63
2019-02-08T08:53:43.993Z,3.00
2019-02-08T08:57:06.737Z,1.97
2019-02-08T09:00:39.738Z,2.77
2019-02-08T09:04:09.922Z,2.03
2019-02-08T09:07:16.131Z,3.77
2019-02-08T09:10:39.721Z,3.97
2019-02-08T09:14:13.274Z,3.80
2019-02-08T09:17:29.312Z,2.00
2019-02-08T09:20:44.212Z,2.77
2019-02-08T09:24:17.838Z,2.67
2019-02-08T09:27:37.860Z,4.40
2019-02-08T09:31:15.462Z,1.63
2019-02-08T09:35:00.678Z,1.53
2019-02-08T09:39:06.238Z,3.27
2019-02-08T09:42:42.674Z,1.70
2019-02-08T09:46:16.047Z,2.30
2019-02-08T09:49:20.686Z,3.00
2019-02-08T09:53:04.834Z,4.47
2019-02-08T09:56:43.943Z,7.10
2019-02-08T10:00:19.888Z,1.60
2019-02-08T10:03:35.732Z,2.07
2019-02-08T10:07:24.394Z,3.97
2019-02-08T10:11:00.075Z,1.50
2019-02-08T10:14:29.771Z,1.30
2019-02-08T10:17:49.472Z,2.30
2019-02-08T10:21:32.832Z,1.50
2019-02-08T10:25:32.322Z,1.87
2019-02-08T10:29:18.450Z,1.40
2019-02-08T10:32:57.947Z,3.10
2019-02-08T10:36:32.074Z,2.03
2019-02-08T10:39:51.449Z,2.00
2019-02-08T10:43:21.092Z,2.40
2019-02-08T10:46:43.396Z,4.40
2019-02-08T10:49:58.691Z,2.33
2019-02-08T10:53:36.562Z,1.10
2019-02-08T10:56:57.047Z,9.43
2019-02-08T11:00:28.774Z,1.77
2019-02-08T11:04:01.213Z,1.23
2019-02-08T11:07:30.602Z,1.10
2019-02-08T11:11:00.709Z,5.43
2019-02-08T11:14:39.371Z,1.87
2019-02-08T11:18:24.745Z,2.00
2019-02-08T11:20:56.260Z,3.37
2019-02-08T11:23:27.751Z,3.63
2019-02-08T11:26:00.469Z,8.17
2019-02-08T11:28:31.910Z,6.40
2019-02-08T11:31:03.392Z,2.50
2019-02-08T11:33:34.895Z,2.33
2019-02-08T11:36:07.232Z,7.13
2019-02-08T11:38:38.682Z,1.37
2019-02-08T11:41:10.145Z,1.90
2019-02-08T11:43:41.707Z,1.87
2019-02-08T11:46:13.247Z,3.70
2019-02-08T11:48:44.688Z,7.70
2019-02-08T11:51:16.132Z,2.00
2019-02-08T11:53:47.583Z,2.13
2019-02-08T11:56:19.136Z,1.67
2019-02-08T11:58:50.641Z,1.47
2019-02-08T12:01:22.127Z,2.50
2019-02-08T12:03:53.533Z,4.57
2019-02-08T12:06:25.035Z,7.33
2019-02-08T12:08:56.498Z,4.87
2019-02-08T12:11:29.133Z,1.13
2019-02-08T12:14:00.768Z,2.40
2019-02-08T12:16:32.156Z,1.47
2019-02-08T12:19:03.579Z,4.10
2019-02-08T12:21:35.040Z,2.60
2019-02-08T12:24:08.750Z,3.63
2019-02-08T12:26:40.223Z,3.53
2019-02-08T12:29:11.743Z,3.17
2019-02-08T12:31:43.264Z,1.57
2019-02-08T12:34:14.773Z,5.70
2019-02-08T12:36:46.253Z,4.63
2019-02-08T12:39:17.714Z,1.23
2019-02-08T12:41:49.256Z,4.20
2019-02-08T12:44:21.476Z,3.17
2019-02-08T12:46:56.933Z,7.07
2019-02-08T12:49:28.420Z,3.10
2019-02-08T12:51:59.963Z,1.30
2019-02-08T12:54:31.370Z,4.73
2019-02-08T12:57:02.892Z,1.60
2019-02-08T12:59:34.565Z,2.27
2019-02-08T13:02:06.063Z,2.50
2019-02-08T13:04:37.577Z,2.30
2019-02-08T13:07:10.333Z,2.13
2019-02-08T13:09:41.998Z,11.57
2019-02-08T13:12:14.533Z,1.73
2019-02-08T13:14:46.081Z,2.33
2019-02-08T13:17:17.638Z,4.40
2019-02-08T13:19:49.003Z,4.37
2019-02-08T13:22:20.431Z,4.23
2019-02-08T13:24:51.926Z,2.93
2019-02-08T13:27:23.484Z,1.23
2019-02-08T13:29:55.005Z,1.20
2019-02-08T13:32:26.543Z,3.20
2019-02-08T13:34:58.043Z,1.20
2019-02-08T13:37:29.533Z,1.77
2019-02-08T13:40:01.010Z,0.80
2019-02-08T13:42:32.775Z,1.53
2019-02-08T13:45:04.303Z,4.20
2019-02-08T13:47:36.211Z,1.00
2019-02-08T13:50:12.204Z,4.40
2019-02-08T13:52:43.642Z,2.03
2019-02-08T13:55:16.281Z,1.27
2019-02-08T13:57:47.886Z,1.80
2019-02-08T14:00:27.537Z,1.73
2019-02-08T14:02:59.415Z,1.00
2019-02-08T14:05:31.163Z,1.80
2019-02-08T14:08:02.664Z,2.33
2019-02-08T14:10:34.968Z,0.77
2019-02-08T14:13:06.727Z,2.50
2019-02-08T14:15:38.358Z,1.47
2019-02-08T14:18:09.937Z,1.90
2019-02-08T14:20:41.587Z,2.03
2019-02-08T14:23:13.093Z,0.87
2019-02-08T14:25:44.578Z,4.50
2019-02-08T14:28:16.172Z,1.63
2019-02-08T14:30:47.905Z,3.30
2019-02-08T14:33:22.432Z,3.23
2019-02-08T14:35:55.715Z,1.33
2019-02-08T14:38:27.433Z,0.93
2019-02-08T14:40:59.080Z,0.70
2019-02-08T14:43:30.537Z,0.90
2019-02-08T14:46:01.992Z,0.80
2019-02-08T14:48:33.468Z,1.83
2019-02-08T14:51:04.955Z,1.97
2019-02-08T14:53:36.429Z,1.47
2019-02-08T14:56:07.930Z,1.90
2019-02-08T14:58:39.348Z,42.90
2019-02-08T15:01:10.888Z,5.20
2019-02-08T15:03:42.345Z,4.23
2019-02-08T15:06:13.817Z,2.73
2019-02-08T15:08:45.244Z,0.87
2019-02-08T15:11:16.797Z,2.03
2019-02-08T15:13:48.475Z,1.30
2019-02-08T15:16:19.951Z,1.97
2019-02-08T15:18:51.319Z,10.50
2019-02-08T15:21:23.833Z,3.17
2019-02-08T15:23:56.475Z,8.10
2019-02-08T15:26:28.186Z,2.93
2019-02-08T15:28:59.685Z,9.93
2019-02-08T15:31:31.193Z,1.60
2019-02-08T15:34:02.686Z,1.50
2019-02-08T15:36:35.549Z,2.07
2019-02-08T15:39:12.012Z,2.20
2019-02-08T15:41:43.518Z,1.97
2019-02-08T15:44:15.032Z,53.50
2019-02-08T15:46:48.342Z,2.47
2019-02-08T15:49:21.606Z,1.10
2019-02-08T15:51:59.156Z,2.70
2019-02-08T15:54:30.697Z,1.30
2019-02-08T15:57:02.204Z,0.83
2019-02-08T15:59:33.664Z,2.50
2019-02-08T16:02:05.630Z,1.10
2019-02-08T16:04:37.129Z,1.53
2019-02-08T16:07:11.647Z,1.57
2019-02-08T16:09:43.055Z,1.83
2019-02-08T16:12:14.555Z,1.43
2019-02-08T16:14:46.012Z,3.17
2019-02-08T16:17:17.562Z,6.60
2019-02-08T16:19:50.856Z,33.73
2019-02-08T16:22:22.486Z,2.57
2019-02-08T16:24:54.116Z,2.90
2019-02-08T16:27:25.608Z,2.30
2019-02-08T16:29:57.655Z,4.60
2019-02-08T16:32:29.239Z,7.50
2019-02-08T16:35:01.005Z,6.30
2019-02-08T16:37:32.488Z,5.77
2019-02-08T16:40:05.159Z,2.67
2019-02-08T16:42:36.651Z,5.90
2019-02-08T16:45:12.080Z,5.10
2019-02-08T16:47:44.765Z,4.37
2019-02-08T16:50:19.965Z,3.40
2019-02-08T16:52:51.441Z,4.27
2019-02-08T16:55:24.659Z,7.60
2019-02-08T16:57:56.177Z,3.00
2019-02-08T17:00:30.728Z,10.03
2019-02-08T17:03:04.782Z,6.47
2019-02-08T17:05:36.404Z,2.20
2019-02-08T17:08:07.904Z,6.63
2019-02-08T17:10:39.751Z,5.00
2019-02-08T17:13:11.318Z,8.30
2019-02-08T17:15:42.810Z,10.47
2019-02-08T17:18:14.255Z,5.60
2019-02-08T17:20:47.606Z,4.23
2019-02-08T17:23:19.067Z,3.20
2019-02-08T17:25:50.718Z,4.27
2019-02-08T17:28:22.258Z,4.07
2019-02-08T17:30:53.710Z,3.67
2019-02-08T17:33:25.220Z,5.47
2019-02-08T17:35:56.673Z,3.20
2019-02-08T17:38:28.159Z,5.40
2019-02-08T17:41:01.570Z,6.70
2019-02-08T17:43:33.178Z,3.10
2019-02-08T17:46:04.701Z,9.87
2019-02-08T17:48:37.227Z,3.73
2019-02-08T17:51:08.669Z,6.73
2019-02-08T17:53:40.123Z,4.40
2019-02-08T17:56:11.629Z,5.93
2019-02-08T17:58:43.212Z,6.63
2019-02-08T18:01:14.665Z,5.00
2019-02-08T18:03:46.132Z,2.93
2019-02-08T18:06:17.788Z,3.63
2019-02-08T18:08:49.241Z,3.10
2019-02-08T18:11:20.782Z,3.40
2019-02-08T18:13:52.338Z,8.03
2019-02-08T18:16:23.822Z,3.80
2019-02-08T18:18:55.305Z,2.97
2019-02-08T18:21:26.800Z,2.60
2019-02-08T18:23:58.314Z,5.40
2019-02-08T18:26:29.761Z,3.90
2019-02-08T18:29:01.337Z,2.70
2019-02-08T18:31:33.871Z,7.60
2019-02-08T18:34:05.424Z,3.60
2019-02-08T18:36:38.252Z,3.83
2019-02-08T18:39:10.381Z,5.47
2019-02-08T18:41:42.068Z,3.00
2019-02-08T18:44:22.605Z,6.40
2019-02-08T18:47:03.622Z,10.83
2019-02-08T18:49:39.264Z,7.27
2019-02-08T18:52:13.892Z,26.77
2019-02-08T18:54:47.389Z,40.10
2019-02-08T18:57:27.261Z,41.03
2019-02-08T19:00:04.962Z,34.37
2019-02-08T19:02:40.536Z,54.90
2019-02-08T19:05:20.203Z,31.13
2019-02-08T19:08:01.818Z,48.73
2019-02-08T19:10:34.982Z,21.40
2019-02-08T19:13:10.403Z,25.33
2019-02-08T19:15:47.394Z,20.30
2019-02-08T19:18:24.749Z,10.93
2019-02-08T19:20:59.041Z,17.83
2019-02-08T19:23:39.193Z,17.03
2019-02-08T19:26:15.341Z,14.80
2019-02-08T19:28:50.838Z,10.47
2019-02-08T19:31:31.683Z,14.63
2019-02-08T19:34:05.227Z,6.53
2019-02-08T19:36:41.834Z,8.87
2019-02-08T19:39:17.158Z,6.57
2019-02-08T19:41:50.202Z,5.30
2019-02-08T19:44:22.877Z,6.13
2019-02-08T19:46:55.194Z,8.33
2019-02-08T19:49:27.887Z,6.00
2019-02-08T19:52:00.220Z,6.17
2019-02-08T19:54:32.539Z,6.03
2019-02-08T19:57:05.206Z,9.13
2019-02-08T19:59:37.287Z,14.70
2019-02-08T20:02:10.639Z,20.70
2019-02-08T20:04:42.755Z,16.43
2019-02-08T20:07:14.746Z,12.30
2019-02-08T20:09:46.688Z,13.67
2019-02-08T20:12:19.053Z,11.60
2019-02-08T20:14:51.205Z,15.10
2019-02-08T20:17:23.785Z,10.23
2019-02-08T20:19:55.688Z,12.17
2019-02-08T20:22:27.591Z,10.63
2019-02-08T20:24:59.512Z,20.50
2019-02-08T20:27:31.164Z,23.70
2019-02-08T20:30:03.007Z,17.50
2019-02-08T20:32:34.687Z,20.13
2019-02-08T20:35:08.978Z,16.77
2019-02-08T20:37:41.140Z,16.13
2019-02-08T20:40:17.595Z,11.73
2019-02-08T20:42:49.920Z,13.63
2019-02-08T20:45:26.003Z,14.00
2019-02-08T20:47:59.174Z,17.20
2019-02-08T20:50:31.234Z,20.83
2019-02-08T20:53:04.833Z,15.20
2019-02-08T20:55:38.019Z,16.07
2019-02-08T20:58:12.137Z,16.50
2019-02-08T21:00:49.681Z,13.53
2019-02-08T21:03:22.168Z,14.80
2019-02-08T21:05:53.813Z,13.57
2019-02-08T21:08:25.591Z,15.87
2019-02-08T21:10:57.244Z,19.10
2019-02-08T21:13:28.798Z,19.60
2019-02-08T21:16:00.271Z,22.00
2019-02-08T21:18:31.774Z,23.50
2019-02-08T21:21:03.249Z,22.43
2019-02-08T21:23:34.750Z,26.30
2019-02-08T21:26:06.563Z,27.67
2019-02-08T21:28:38.220Z,24.60
2019-02-08T21:31:09.898Z,29.30
2019-02-08T21:33:41.568Z,23.00
2019-02-08T21:36:15.057Z,24.43
2019-02-08T21:38:46.661Z,23.03
2019-02-08T21:41:18.276Z,31.27
2019-02-08T21:43:50.158Z,29.70
2019-02-08T21:46:22.860Z,26.27
2019-02-08T21:48:54.362Z,23.37
2019-02-08T21:51:26.990Z,28.57
2019-02-08T21:53:58.595Z,28.83
2019-02-08T21:56:30.079Z,28.10
2019-02-08T21:59:06.222Z,32.33
2019-02-08T22:01:34.736Z,30.03
2019-02-08T22:04:06.455Z,30.47
2019-02-08T22:06:37.956Z,27.27
2019-02-08T22:09:10.522Z,24.93
2019-02-08T22:11:42.847Z,22.73
2019-02-08T22:14:14.407Z,25.43
2019-02-08T22:16:45.985Z,30.27
2019-02-08T22:19:17.508Z,29.47
2019-02-08T22:21:48.984Z,22.20
2019-02-08T22:24:20.456Z,22.37
2019-02-08T22:26:51.927Z,26.97
2019-02-08T22:29:23.468Z,30.20
2019-02-08T22:31:54.834Z,27.87
2019-02-08T22:34:26.339Z,24.43
2019-02-08T22:36:57.954Z,32.90
2019-02-08T22:39:29.399Z,28.27
2019-02-08T22:42:00.917Z,27.83
2019-02-08T22:44:32.844Z,24.40
2019-02-08T22:47:04.300Z,32.30
2019-02-08T22:49:35.919Z,25.23
2019-02-08T22:52:07.402Z,23.13
2019-02-08T22:54:38.909Z,21.87
2019-02-08T22:57:10.322Z,28.47
2019-02-08T22:59:42.182Z,25.13
2019-02-08T23:02:14.174Z,27.50
2019-02-08T23:04:45.847Z,29.40
2019-02-08T23:07:17.366Z,31.00
2019-02-08T23:09:48.970Z,27.10
2019-02-08T23:12:20.486Z,25.90
2019-02-08T23:14:52.161Z,34.87
2019-02-08T23:17:23.826Z,28.47
2019-02-08T23:19:55.296Z,25.63
2019-02-08T23:22:26.788Z,27.57
2019-02-08T23:24:58.288Z,26.20
2019-02-08T23:27:29.814Z,24.17
2019-02-08T23:30:01.307Z,24.20
2019-02-08T23:32:34.012Z,20.00
2019-02-08T23:35:06.736Z,16.97
2019-02-08T23:37:38.188Z,17.37
2019-02-08T23:40:09.741Z,11.63
2019-02-08T23:42:41.168Z,13.03
2019-02-08T23:45:13.062Z,11.00
2019-02-08T23:47:44.602Z,17.17
2019-02-08T23:50:16.148Z,15.33
2019-02-08T23:52:47.615Z,11.93
2019-02-08T23:55:20.098Z,16.30
2019-02-08T23:57:51.594Z,7.97
